Time;durP1;ratioP1;P1;durP2;ratioP2;P2;SDS_P1;SDS_P2;PMS_P1;PMS_P2;Temp;Humidity;BMP_temperature;BMP_pressure;BME280_temperature;BME280_humidity;BME280_pressure;Samples;Min_cycle;Max_cycle;Signal;HPM_P1;HPM_P2
2023/08/27 00:01:55;;;;;;;6.40;3.33;;;;;;;18.55;100.00;92035.00;5050559;28;20051;-79
2023/08/27 00:04:21;;;;;;;4.70;2.30;;;;;;;18.45;100.00;92068.88;5068982;28;20027;-79
2023/08/27 00:06:46;;;;;;;6.32;1.80;;;;;;;18.40;100.00;92047.94;5068577;28;20102;-79
2023/08/27 00:09:12;;;;;;;4.60;2.05;;;;;;;18.30;100.00;92038.63;5073314;28;20032;-78
2023/08/27 00:11:37;;;;;;;4.75;1.90;;;;;;;18.28;100.00;92069.22;5038258;28;20033;-79
2023/08/27 00:14:03;;;;;;;41.67;3.60;;;;;;;18.24;100.00;92079.75;5070128;28;20056;-79
2023/08/27 00:16:29;;;;;;;318.17;8.13;;;;;;;18.21;100.00;92072.47;5072428;28;20051;-79
2023/08/27 00:18:54;;;;;;;225.95;6.78;;;;;;;18.25;100.00;92070.69;5074019;28;20021;-79
2023/08/27 00:21:20;;;;;;;29.83;3.70;;;;;;;18.23;100.00;92057.00;5074186;28;20029;-79
2023/08/27 00:23:45;;;;;;;324.30;8.32;;;;;;;18.22;100.00;92052.09;5052600;28;20045;-78
2023/08/27 00:26:12;;;;;;;45.72;4.45;;;;;;;18.25;100.00;92046.84;5075303;28;20240;-79
2023/08/27 00:28:38;;;;;;;5.47;3.55;;;;;;;18.28;100.00;92045.38;5077475;28;20024;-79
2023/08/27 00:31:03;;;;;;;6.03;3.25;;;;;;;18.29;100.00;92044.28;5053918;28;20043;-78
2023/08/27 00:33:30;;;;;;;4.30;2.80;;;;;;;18.31;100.00;92050.03;5055829;28;20027;-79
2023/08/27 00:35:56;;;;;;;411.95;14.65;;;;;;;18.26;100.00;92047.59;5054479;28;20063;-78
2023/08/27 00:38:22;;;;;;;557.50;18.33;;;;;;;18.18;100.00;92045.94;5057359;28;20037;-78
2023/08/27 00:40:48;;;;;;;359.63;10.23;;;;;;;18.13;100.00;92054.16;5057546;28;20021;-79
2023/08/27 00:43:15;;;;;;;1161.82;28.83;;;;;;;18.06;100.00;92052.84;5050490;28;20525;-79
2023/08/27 00:45:41;;;;;;;215.07;6.95;;;;;;;18.05;100.00;92048.66;5052018;28;20103;-78
2023/08/27 00:48:07;;;;;;;5.47;2.60;;;;;;;17.91;100.00;92050.22;5056397;28;20039;-78
2023/08/27 00:50:33;;;;;;;5.45;2.60;;;;;;;17.85;100.00;92045.16;5056824;28;20033;-77
2023/08/27 00:52:59;;;;;;;4.60;2.95;;;;;;;17.92;100.00;92059.69;5063267;28;20111;-79
2023/08/27 00:55:25;;;;;;;4.82;2.40;;;;;;;17.92;100.00;92046.44;5075578;28;20045;-78
2023/08/27 00:57:51;;;;;;;4.60;2.40;;;;;;;17.94;100.00;92052.94;5055372;28;20033;-78
2023/08/27 01:00:18;;;;;;;3.70;2.30;;;;;;;17.95;100.00;92064.31;5057390;28;20088;-79
2023/08/27 01:02:44;;;;;;;6.07;2.28;;;;;;;17.96;100.00;92052.59;5055039;28;20041;-79
2023/08/27 01:05:13;;;;;;;4.70;2.35;;;;;;;17.94;100.00;92055.56;5051099;28;20066;-78
2023/08/27 01:07:52;;;;;;;5.97;2.22;;;;;;;18.01;100.00;92053.13;5052206;28;20063;-79
2023/08/27 01:10:56;;;;;;;10.82;4.25;;;;;;;18.16;100.00;92058.75;5076520;28;20032;-78
2023/08/27 01:13:59;;;;;;;7.65;3.40;;;;;;;18.26;100.00;92047.59;5059194;28;20056;-78
2023/08/27 01:16:26;;;;;;;10.35;6.10;;;;;;;18.34;100.00;92056.50;5072778;28;20101;-79
2023/08/27 01:18:53;;;;;;;8.48;6.15;;;;;;;18.36;100.00;92041.78;5070442;28;20108;-77
2023/08/27 01:21:23;;;;;;;14.18;8.18;;;;;;;18.30;100.00;92029.91;5053126;28;20056;-78
2023/08/27 01:23:49;;;;;;;12.90;7.63;;;;;;;18.25;100.00;92019.59;5069973;28;20475;-79
2023/08/27 01:26:35;;;;;;;11.38;7.63;;;;;;;18.24;100.00;92015.41;5052466;28;20127;-79
2023/08/27 01:29:23;;;;;;;9.95;6.93;;;;;;;18.33;100.00;92021.31;5074294;28;20039;-78
2023/08/27 01:32:04;;;;;;;18.00;7.93;;;;;;;18.24;100.00;92012.78;5065356;28;20031;-78
2023/08/27 01:34:30;;;;;;;10.70;7.15;;;;;;;18.21;100.00;92016.84;5054260;28;20402;-79
2023/08/27 01:36:57;;;;;;;11.30;7.40;;;;;;;18.18;100.00;92012.25;5049046;28;20040;-79
2023/08/27 01:39:23;;;;;;;9.32;7.32;;;;;;;18.19;100.00;92013.78;5055661;28;20090;-79
2023/08/27 01:41:49;;;;;;;11.20;7.85;;;;;;;18.23;100.00;92032.41;5073407;28;20032;-78
2023/08/27 01:44:15;;;;;;;14.80;7.90;;;;;;;18.21;100.00;92011.56;5053359;28;20062;-78
2023/08/27 01:46:40;;;;;;;12.00;7.03;;;;;;;18.22;100.00;92004.41;5037510;28;20119;-79
2023/08/27 01:49:06;;;;;;;12.75;7.80;;;;;;;18.22;100.00;92010.47;5050786;28;20299;-78
2023/08/27 01:51:32;;;;;;;12.75;8.13;;;;;;;18.23;100.00;92003.28;5053459;28;20107;-79
2023/08/27 01:53:57;;;;;;;10.77;7.05;;;;;;;18.25;100.00;92006.34;5073479;28;20036;-79
2023/08/27 01:56:23;;;;;;;11.55;8.10;;;;;;;18.27;100.00;92017.38;5056261;28;20035;-79
2023/08/27 01:58:49;;;;;;;13.40;7.43;;;;;;;18.28;100.00;92013.59;5055546;28;20424;-78
2023/08/27 02:01:15;;;;;;;12.43;8.43;;;;;;;18.38;100.00;92017.63;5049484;28;20041;-78
2023/08/27 02:03:41;;;;;;;12.13;8.38;;;;;;;18.33;100.00;92015.22;5053157;28;20028;-79
2023/08/27 02:06:06;;;;;;;13.80;8.77;;;;;;;18.36;100.00;92010.00;5041109;28;20036;-78
2023/08/27 02:08:32;;;;;;;13.18;7.63;;;;;;;18.45;100.00;92004.50;5070693;28;20353;-78
2023/08/27 02:10:57;;;;;;;15.43;8.85;;;;;;;18.54;100.00;92014.94;5067288;28;20033;-79
2023/08/27 02:13:23;;;;;;;14.05;8.70;;;;;;;18.51;100.00;92001.25;5071012;28;20029;-79
2023/08/27 02:15:48;;;;;;;10.77;8.00;;;;;;;18.49;100.00;91992.88;5050712;28;20031;-79
2023/08/27 02:18:14;;;;;;;13.65;7.68;;;;;;;18.50;100.00;91988.34;5055046;28;20043;-79
2023/08/27 02:20:39;;;;;;;15.43;7.80;;;;;;;18.48;100.00;91986.03;5047819;28;20033;-78
2023/08/27 02:23:05;;;;;;;13.48;8.50;;;;;;;18.49;100.00;91976.22;5044837;28;20036;-79
2023/08/27 02:25:31;;;;;;;14.18;8.88;;;;;;;18.47;100.00;91960.66;5053470;28;20032;-79
2023/08/27 02:27:56;;;;;;;13.98;8.95;;;;;;;18.50;100.00;91962.59;5070483;28;20041;-79
2023/08/27 02:30:22;;;;;;;13.07;8.52;;;;;;;18.47;100.00;91963.28;5033806;28;20037;-78
2023/08/27 02:32:47;;;;;;;15.43;8.73;;;;;;;18.46;100.00;91971.59;5052634;28;20035;-78
2023/08/27 02:35:13;;;;;;;11.77;7.72;;;;;;;18.47;100.00;91963.28;5043295;28;20024;-78
2023/08/27 02:37:39;;;;;;;12.70;8.93;;;;;;;18.44;100.00;91958.69;5076489;28;20044;-79
2023/08/27 02:40:05;;;;;;;14.15;8.95;;;;;;;18.44;100.00;91952.63;5054755;28;20503;-79
2023/08/27 02:42:31;;;;;;;13.93;8.38;;;;;;;18.49;100.00;91961.06;5053196;28;20051;-79
2023/08/27 02:44:56;;;;;;;14.68;8.88;;;;;;;18.51;100.00;91968.69;5054069;28;20044;-78
2023/08/27 02:47:23;;;;;;;15.65;8.98;;;;;;;18.48;100.00;91967.47;5073235;28;20512;-79
2023/08/27 02:49:49;;;;;;;14.30;9.00;;;;;;;18.49;100.00;91976.97;5042054;28;20032;-79
2023/08/27 02:52:16;;;;;;;13.95;9.10;;;;;;;18.47;100.00;91971.25;5051330;28;20124;-79
2023/08/27 02:54:41;;;;;;;13.23;9.45;;;;;;;18.48;100.00;91972.78;5051955;28;20040;-79
2023/08/27 02:57:07;;;;;;;14.20;9.70;;;;;;;18.51;100.00;91973.97;5040439;28;20044;-79
2023/08/27 02:59:33;;;;;;;14.95;9.57;;;;;;;18.54;100.00;91959.25;5052321;28;20159;-78
2023/08/27 03:01:58;;;;;;;13.88;9.68;;;;;;;18.55;100.00;91952.84;5047558;28;20033;-79
2023/08/27 03:04:24;;;;;;;14.93;9.35;;;;;;;18.55;100.00;91936.94;5056808;28;20120;-78
2023/08/27 03:06:50;;;;;;;13.73;8.93;;;;;;;18.54;100.00;91928.22;5046490;28;20479;-79
2023/08/27 03:09:15;;;;;;;13.90;8.35;;;;;;;18.59;100.00;91946.50;5068516;28;20036;-79
2023/08/27 03:11:41;;;;;;;16.10;9.15;;;;;;;18.55;100.00;91942.22;5048814;28;20071;-79
2023/08/27 03:14:07;;;;;;;15.15;8.82;;;;;;;18.54;100.00;91941.47;5037078;28;20498;-79
2023/08/27 03:16:33;;;;;;;15.90;10.00;;;;;;;18.54;100.00;91924.81;5052144;28;20042;-79
2023/08/27 03:18:59;;;;;;;18.48;10.30;;;;;;;18.52;100.00;91917.97;5070102;28;20035;-77
2023/08/27 03:21:25;;;;;;;15.90;9.40;;;;;;;18.51;100.00;91924.38;5074158;28;20453;-78
2023/08/27 03:23:50;;;;;;;12.63;9.20;;;;;;;18.49;100.00;91923.97;5053731;28;20803;-78
2023/08/27 03:26:16;;;;;;;14.35;9.38;;;;;;;18.49;100.00;91908.06;5051606;28;20045;-78
2023/08/27 03:28:41;;;;;;;13.40;9.50;;;;;;;18.48;100.00;91916.34;5055526;28;20028;-79
2023/08/27 03:31:07;;;;;;;13.18;9.30;;;;;;;18.49;100.00;91900.13;5073027;28;20040;-78
2023/08/27 03:33:33;;;;;;;12.15;9.30;;;;;;;18.50;100.00;91898.22;5042673;28;20029;-79
2023/08/27 03:36:00;;;;;;;14.27;8.82;;;;;;;18.50;100.00;91888.38;5044479;28;20033;-79
2023/08/27 03:38:26;;;;;;;16.50;9.55;;;;;;;18.52;100.00;91890.69;5067236;28;20032;-79
2023/08/27 03:40:52;;;;;;;14.65;9.15;;;;;;;18.52;100.00;91875.56;5044197;28;20132;-78
2023/08/27 03:43:18;;;;;;;18.58;9.48;;;;;;;18.67;100.00;91875.84;5058412;28;20098;-78
2023/08/27 03:45:44;;;;;;;15.52;8.85;;;;;;;18.71;100.00;91876.66;5048194;28;20132;-78
2023/08/27 03:48:10;;;;;;;13.88;8.60;;;;;;;18.61;100.00;91864.00;5047046;28;20043;-78
2023/08/27 03:50:36;;;;;;;15.10;8.60;;;;;;;18.57;100.00;91850.66;5049849;28;20036;-78
2023/08/27 03:53:04;;;;;;;19.33;9.13;;;;;;;18.58;100.00;91851.44;5046699;28;20472;-78
2023/08/27 03:55:29;;;;;;;12.80;8.85;;;;;;;18.58;100.00;91840.84;5046741;28;20068;-79
2023/08/27 03:57:55;;;;;;;12.73;8.80;;;;;;;18.63;100.00;91843.19;5057282;28;20037;-79
2023/08/27 04:00:21;;;;;;;17.10;8.93;;;;;;;18.59;100.00;91848.41;5078314;28;20502;-79
2023/08/27 04:02:47;;;;;;;12.77;9.15;;;;;;;18.58;100.00;91846.91;5076368;28;20058;-79
2023/08/27 04:05:13;;;;;;;13.68;8.85;;;;;;;18.60;100.00;91849.19;5038568;28;20037;-78
2023/08/27 04:07:38;;;;;;;12.80;8.55;;;;;;;18.54;100.00;91834.72;5057617;28;20052;-79
2023/08/27 04:10:04;;;;;;;13.75;8.68;;;;;;;18.55;100.00;91846.81;5069257;28;20021;-79
2023/08/27 04:12:33;;;;;;;14.07;8.82;;;;;;;18.54;100.00;91847.97;5052010;28;20031;-79
2023/08/27 04:14:59;;;;;;;12.82;8.77;;;;;;;18.51;100.00;91831.63;5055063;28;20082;-79
2023/08/27 04:17:25;;;;;;;12.93;7.93;;;;;;;18.50;100.00;91835.38;5054516;28;20033;-79
2023/08/27 04:19:52;;;;;;;13.27;8.07;;;;;;;18.53;100.00;91833.94;5047118;28;20473;-78
2023/08/27 04:22:18;;;;;;;17.17;8.32;;;;;;;18.60;100.00;91841.22;5062909;28;20029;-78
2023/08/27 04:24:43;;;;;;;10.93;7.63;;;;;;;18.61;100.00;91835.59;5053565;28;20547;-79
2023/08/27 04:27:10;;;;;;;13.90;8.30;;;;;;;18.54;100.00;91834.72;5056868;28;20056;-79
2023/08/27 04:29:36;;;;;;;11.25;8.15;;;;;;;18.46;100.00;91833.78;5046679;28;20043;-78
2023/08/27 04:32:03;;;;;;;13.85;8.52;;;;;;;18.50;100.00;91835.38;5053331;28;20080;-78
2023/08/27 04:34:29;;;;;;;15.05;8.88;;;;;;;18.45;100.00;91834.91;5059423;28;20128;-79
2023/08/27 04:36:56;;;;;;;16.38;8.20;;;;;;;18.39;100.00;91845.03;5030693;28;20075;-79
2023/08/27 04:39:22;;;;;;;11.52;8.20;;;;;;;18.46;100.00;91855.78;5044610;28;20044;-79
2023/08/27 04:41:49;;;;;;;16.75;7.07;;;;;;;18.59;100.00;91852.97;5028561;28;20343;-78
2023/08/27 04:44:15;;;;;;;13.10;7.00;;;;;;;18.71;100.00;91855.44;5044146;28;20079;-78
2023/08/27 04:46:40;;;;;;;13.52;7.10;;;;;;;18.82;100.00;91845.06;5045324;28;20025;-79
2023/08/27 04:49:06;;;;;;;13.98;7.45;;;;;;;18.88;100.00;91849.72;5038360;28;20037;-78
2023/08/27 04:51:32;;;;;;;12.77;6.93;;;;;;;18.93;100.00;91846.78;5081213;28;20024;-78
2023/08/27 04:53:57;;;;;;;12.50;7.47;;;;;;;18.85;100.00;91858.41;5062626;28;20060;-79
2023/08/27 04:56:23;;;;;;;9.63;5.97;;;;;;;19.07;100.00;91856.88;5054808;28;20016;-78
2023/08/27 04:58:48;;;;;;;12.15;7.30;;;;;;;18.96;100.00;91849.84;5044886;28;20049;-78
2023/08/27 05:01:14;;;;;;;12.48;7.75;;;;;;;19.01;100.00;91842.38;5035732;28;20094;-79
2023/08/27 05:03:40;;;;;;;14.38;7.40;;;;;;;18.90;100.00;91846.72;5064611;28;20406;-79
2023/08/27 05:06:06;;;;;;;11.25;7.93;;;;;;;18.88;100.00;91870.94;5064211;28;20024;-78
2023/08/27 05:08:32;;;;;;;15.65;7.30;;;;;;;18.82;100.00;91860.97;5058527;28;20036;-78
2023/08/27 05:10:58;;;;;;;13.02;6.18;;;;;;;19.02;100.00;91859.06;5079000;28;20161;-77
2023/08/27 05:13:25;;;;;;;13.52;7.13;;;;;;;19.01;100.00;91863.59;5057834;28;20469;-79
2023/08/27 05:15:52;;;;;;;12.75;7.45;;;;;;;18.95;100.00;91869.53;5062120;28;20639;-78
2023/08/27 05:18:19;;;;;;;16.92;6.38;;;;;;;19.03;100.00;91866.66;5047306;28;20037;-79
2023/08/27 05:20:46;;;;;;;10.68;7.13;;;;;;;18.97;100.00;91867.31;5038096;28;20043;-78
2023/08/27 05:23:12;;;;;;;15.30;5.50;;;;;;;19.07;100.00;91866.72;5052701;28;20033;-78
2023/08/27 05:25:38;;;;;;;12.52;7.07;;;;;;;19.10;100.00;91866.03;5046388;28;20094;-78
2023/08/27 05:28:04;;;;;;;10.25;7.10;;;;;;;19.04;100.00;91865.53;5070522;28;20119;-78
2023/08/27 05:30:29;;;;;;;12.23;6.68;;;;;;;19.13;100.00;91870.59;5049944;28;20068;-78
2023/08/27 05:32:55;;;;;;;13.70;6.45;;;;;;;19.04;100.00;91870.06;5029013;28;20032;-79
2023/08/27 05:35:22;;;;;;;10.02;6.28;;;;;;;19.12;100.00;91888.41;5044849;28;20025;-79
2023/08/27 05:37:47;;;;;;;9.90;6.32;;;;;;;19.22;100.00;91888.94;5056002;28;20044;-78
2023/08/27 05:40:13;;;;;;;12.32;6.30;;;;;;;19.21;100.00;91882.88;5064085;28;20037;-78
2023/08/27 05:42:39;;;;;;;12.68;6.40;;;;;;;19.17;100.00;91871.44;5064872;28;20036;-78
2023/08/27 05:45:05;;;;;;;13.45;6.78;;;;;;;19.19;100.00;91858.59;5045977;28;20020;-78
2023/08/27 05:47:31;;;;;;;9.02;6.60;;;;;;;19.20;100.00;91862.75;5065092;28;20040;-78
2023/08/27 05:49:56;;;;;;;11.63;6.85;;;;;;;19.27;100.00;91851.50;5044455;28;20130;-78
2023/08/27 05:52:22;;;;;;;13.80;7.18;;;;;;;19.30;100.00;91853.47;5027347;28;20091;-79
2023/08/27 05:54:47;;;;;;;11.40;6.80;;;;;;;19.46;100.00;91851.44;5043876;28;20040;-78
2023/08/27 05:57:13;;;;;;;13.95;6.70;;;;;;;19.55;100.00;91861.81;5027836;28;20611;-84
2023/08/27 05:59:39;;;;;;;9.38;6.40;;;;;;;19.63;100.00;91857.34;5073864;28;20052;-80
2023/08/27 06:02:05;;;;;;;10.80;5.57;;;;;;;19.65;100.00;91847.16;5050468;28;20059;-79
2023/08/27 06:04:32;;;;;;;14.77;6.50;;;;;;;19.70;100.00;91854.81;5051183;28;20032;-81
2023/08/27 06:06:57;;;;;;;12.05;6.35;;;;;;;19.69;100.00;91856.72;5038373;28;20041;-79
2023/08/27 06:09:23;;;;;;;13.15;6.53;;;;;;;19.77;100.00;91860.25;5026758;28;20029;-79
2023/08/27 06:11:54;;;;;;;11.40;5.90;;;;;;;19.86;100.00;91862.63;5065233;28;20522;-80
2023/08/27 06:14:23;;;;;;;13.73;6.80;;;;;;;19.86;100.00;91866.06;5067969;28;20040;-78
2023/08/27 06:16:49;;;;;;;13.48;6.35;;;;;;;19.84;100.00;91864.91;5080916;28;20063;-79
2023/08/27 06:19:14;;;;;;;9.52;5.85;;;;;;;19.91;100.00;91865.00;5071475;28;20721;-79
2023/08/27 06:21:40;;;;;;;12.20;6.20;;;;;;;19.93;100.00;91862.75;5058285;28;20032;-79
2023/08/27 06:24:06;;;;;;;11.45;6.57;;;;;;;19.93;100.00;91865.41;5062797;28;20095;-78
2023/08/27 06:26:31;;;;;;;10.70;7.00;;;;;;;19.91;100.00;91849.06;5057892;28;20024;-79
2023/08/27 06:28:57;;;;;;;10.68;6.88;;;;;;;19.90;100.00;91850.94;5058906;28;20070;-79
2023/08/27 06:31:28;;;;;;;12.38;7.10;;;;;;;19.89;100.00;91856.63;5072511;28;20042;-78
2023/08/27 06:33:53;;;;;;;11.13;6.35;;;;;;;19.83;100.00;91844.78;5060789;28;20033;-79
2023/08/27 06:36:33;;;;;;;9.07;6.68;;;;;;;19.83;100.00;91842.13;5065912;28;20036;-79
2023/08/27 06:39:01;;;;;;;10.40;6.35;;;;;;;19.84;100.00;91841.00;5041829;28;20784;-79
2023/08/27 06:41:27;;;;;;;15.55;6.63;;;;;;;19.86;100.00;91836.06;5049021;28;20148;-79
2023/08/27 06:43:56;;;;;;;9.90;6.65;;;;;;;19.84;100.00;91838.34;5038109;28;20041;-80
2023/08/27 06:46:22;;;;;;;14.07;6.35;;;;;;;19.89;100.00;91846.00;5056915;28;20394;-79
2023/08/27 06:48:48;;;;;;;9.27;6.38;;;;;;;19.81;100.00;91847.78;5048919;28;20036;-79
2023/08/27 06:51:13;;;;;;;10.73;6.63;;;;;;;19.82;100.00;91853.88;5050822;28;20143;-79
2023/08/27 06:53:40;;;;;;;13.82;5.90;;;;;;;19.79;100.00;91852.66;5052318;28;20033;-79
2023/08/27 06:56:05;;;;;;;11.88;6.03;;;;;;;19.87;100.00;91864.19;5041697;28;20067;-78
2023/08/27 06:58:31;;;;;;;10.57;6.40;;;;;;;19.92;100.00;91866.53;5028408;28;20045;-80
2023/08/27 07:00:56;;;;;;;11.43;6.05;;;;;;;19.82;100.00;91872.47;5044448;28;20055;-80
2023/08/27 07:03:22;;;;;;;15.18;6.75;;;;;;;19.85;100.00;91877.81;5040116;28;20059;-79
2023/08/27 07:05:49;;;;;;;12.82;7.13;;;;;;;19.89;100.00;91872.56;5044941;28;20036;-79
2023/08/27 07:08:15;;;;;;;9.93;6.53;;;;;;;19.89;100.00;91872.56;5045204;28;20036;-79
2023/08/27 07:10:40;;;;;;;10.15;6.97;;;;;;;19.89;100.00;91872.56;5044736;28;20071;-78
2023/08/27 07:13:06;;;;;;;13.43;7.25;;;;;;;19.88;100.00;91855.06;5043630;28;20033;-79
2023/08/27 07:15:31;;;;;;;17.38;6.85;;;;;;;19.92;100.00;91863.88;5062074;28;20039;-79
2023/08/27 07:17:57;;;;;;;12.15;7.25;;;;;;;19.94;100.00;91864.28;5027677;28;20045;-79
2023/08/27 07:20:23;;;;;;;13.07;7.88;;;;;;;19.94;100.00;91872.25;5043277;28;20029;-79
2023/08/27 07:22:48;;;;;;;13.52;7.00;;;;;;;19.90;100.00;91863.44;5044332;28;20521;-79
2023/08/27 07:25:16;;;;;;;12.35;7.28;;;;;;;19.84;100.00;91868.31;5043956;28;20453;-80
2023/08/27 07:27:42;;;;;;;14.18;7.03;;;;;;;19.80;100.00;91869.41;5028535;28;20094;-79
2023/08/27 07:30:08;;;;;;;9.07;6.22;;;;;;;19.80;100.00;91870.16;5028188;28;20029;-79
2023/08/27 07:32:38;;;;;;;11.90;6.90;;;;;;;19.77;100.00;91865.56;5044345;28;20045;-79
2023/08/27 07:35:06;;;;;;;12.88;7.32;;;;;;;19.75;100.00;91867.81;5043569;28;20094;-79
2023/08/27 07:37:35;;;;;;;12.65;7.07;;;;;;;19.72;100.00;91864.00;5044061;28;20096;-80
2023/08/27 07:40:09;;;;;;;17.75;7.85;;;;;;;19.74;100.00;91859.06;5063312;28;20052;-80
2023/08/27 07:42:35;;;;;;;12.70;8.02;;;;;;;19.75;100.00;91870.47;5062699;28;20044;-80
2023/08/27 07:45:05;;;;;;;9.88;7.00;;;;;;;19.74;100.00;91856.41;5062490;28;20036;-80
2023/08/27 07:47:30;;;;;;;14.23;7.35;;;;;;;19.81;100.00;91854.97;5081074;28;20036;-79
2023/08/27 07:49:58;;;;;;;16.10;6.63;;;;;;;19.76;100.00;91853.41;5064872;28;20519;-79
2023/08/27 07:52:29;;;;;;;13.18;6.95;;;;;;;19.73;100.00;91870.06;5064516;28;20032;-80
2023/08/27 07:54:55;;;;;;;14.60;6.00;;;;;;;19.62;100.00;91863.78;5065556;28;20105;-79
2023/08/27 07:57:21;;;;;;;11.60;6.30;;;;;;;19.57;100.00;91875.47;5065693;28;20100;-79
2023/08/27 07:59:48;;;;;;;11.90;6.47;;;;;;;19.51;100.00;91896.25;5050176;28;20049;-79
2023/08/27 08:02:18;;;;;;;12.13;6.70;;;;;;;19.42;100.00;91892.31;5048633;28;20036;-79
2023/08/27 08:04:44;;;;;;;11.63;7.50;;;;;;;19.48;100.00;91904.16;5064891;28;20044;-79
2023/08/27 08:07:09;;;;;;;10.98;5.82;;;;;;;19.47;100.00;91910.56;5063237;28;20467;-78
2023/08/27 08:09:37;;;;;;;13.98;5.70;;;;;;;19.40;100.00;91902.50;5063495;28;20051;-79
2023/08/27 08:12:03;;;;;;;8.23;4.65;;;;;;;19.32;100.00;91905.06;5082410;28;20035;-80
2023/08/27 08:14:29;;;;;;;9.73;5.45;;;;;;;19.34;100.00;91907.31;5048804;28;20036;-80
2023/08/27 08:17:01;;;;;;;10.02;5.38;;;;;;;19.26;100.00;91911.75;5066230;28;20423;-82
2023/08/27 08:19:28;;;;;;;12.23;6.03;;;;;;;19.28;100.00;91919.38;5082675;28;20429;-79
2023/08/27 08:21:53;;;;;;;8.27;4.95;;;;;;;19.30;100.00;91928.50;5082104;28;20029;-79
2023/08/27 08:24:19;;;;;;;11.65;5.15;;;;;;;19.20;100.00;91917.72;5046940;28;20052;-77
2023/08/27 08:26:52;;;;;;;13.80;5.72;;;;;;;19.14;100.00;91930.50;5046087;28;20536;-79
2023/08/27 08:29:22;;;;;;;12.30;6.30;;;;;;;19.19;100.00;91932.88;5060377;28;20044;-81
2023/08/27 08:31:48;;;;;;;11.80;5.95;;;;;;;19.17;100.00;91934.34;5045143;28;20773;-78
2023/08/27 08:34:15;;;;;;;10.73;5.35;;;;;;;19.11;100.00;91933.84;5051395;28;20055;-79
2023/08/27 08:36:41;;;;;;;15.10;6.15;;;;;;;19.07;100.00;91930.38;5071121;28;20093;-79
2023/08/27 08:39:07;;;;;;;12.10;6.32;;;;;;;19.06;100.00;91944.75;5078394;28;20036;-78
2023/08/27 08:41:37;;;;;;;13.80;6.60;;;;;;;18.90;100.00;91932.34;5077734;28;20499;-79
2023/08/27 08:44:35;;;;;;;11.38;6.30;;;;;;;18.79;100.00;91946.53;5062833;28;20032;-79
2023/08/27 08:47:03;;;;;;;10.30;5.97;;;;;;;18.68;100.00;91951.59;5058583;28;20097;-80
2023/08/27 08:49:32;;;;;;;12.15;6.43;;;;;;;18.70;100.00;91944.81;5059680;28;20032;-80
2023/08/27 08:52:05;;;;;;;11.23;6.82;;;;;;;18.56;100.00;91946.44;5071372;28;20055;-78
2023/08/27 08:54:39;;;;;;;14.88;7.30;;;;;;;18.59;100.00;91961.63;5078146;28;20074;-79
2023/08/27 08:57:27;;;;;;;15.05;7.80;;;;;;;18.59;100.00;91959.75;5067615;28;20552;-79
2023/08/27 08:59:55;;;;;;;15.05;7.00;;;;;;;18.58;100.00;91960.88;5059154;28;20107;-79
2023/08/27 09:02:41;;;;;;;10.93;6.50;;;;;;;18.63;100.00;91970.44;5059065;28;20097;-79
2023/08/27 09:05:34;;;;;;;18.98;7.35;;;;;;;18.60;100.00;91969.25;5041409;28;20558;-79
2023/08/27 09:07:59;;;;;;;12.88;8.00;;;;;;;18.56;100.00;91970.28;5042374;28;20037;-79
2023/08/27 09:10:27;;;;;;;17.40;8.90;;;;;;;18.53;100.00;91979.72;5042032;28;20078;-79
2023/08/27 09:13:16;;;;;;;14.13;8.88;;;;;;;18.40;100.00;91989.66;5041475;28;20037;-78
2023/08/27 09:15:42;;;;;;;13.73;7.50;;;;;;;18.36;100.00;91982.75;5058372;28;20032;-78
2023/08/27 09:18:08;;;;;;;14.43;8.52;;;;;;;18.23;100.00;91982.09;5057888;28;20029;-79
2023/08/27 09:20:33;;;;;;;13.25;9.38;;;;;;;18.16;100.00;91981.94;5065736;28;20041;-79
2023/08/27 09:22:59;;;;;;;17.70;8.73;;;;;;;18.03;100.00;91986.56;5068498;28;20029;-78
2023/08/27 09:25:24;;;;;;;16.10;8.73;;;;;;;17.95;100.00;91982.22;5040936;28;20044;-81
2023/08/27 09:27:50;;;;;;;18.83;9.13;;;;;;;17.88;100.00;91998.72;5069831;28;20025;-79
2023/08/27 09:30:17;;;;;;;10.77;6.70;;;;;;;17.94;100.00;91999.97;5078434;28;20045;-78
2023/08/27 09:32:45;;;;;;;15.60;11.25;;;;;;;17.80;100.00;91999.63;5067041;28;20106;-79
2023/08/27 09:35:11;;;;;;;15.70;9.35;;;;;;;17.73;100.00;92000.22;5070597;28;20035;-80
2023/08/27 09:37:42;;;;;;;16.35;9.63;;;;;;;17.65;100.00;91991.34;5072186;28;20397;-79
2023/08/27 09:40:09;;;;;;;14.05;10.00;;;;;;;17.62;100.00;91999.19;5073014;28;20032;-79
2023/08/27 09:42:35;;;;;;;16.90;9.88;;;;;;;17.69;100.00;91999.34;5072701;28;20378;-80
2023/08/27 09:45:00;;;;;;;9.63;7.53;;;;;;;17.68;100.00;91998.59;5057818;28;20050;-78
2023/08/27 09:47:34;;;;;;;14.27;8.48;;;;;;;17.75;100.00;92002.53;5075378;28;20098;-78
2023/08/27 09:50:03;;;;;;;14.15;9.10;;;;;;;17.79;100.00;92001.50;5066965;28;20044;-79
2023/08/27 09:52:29;;;;;;;9.38;6.90;;;;;;;17.82;100.00;92005.38;5071157;28;20024;-79
2023/08/27 09:54:55;;;;;;;11.95;8.55;;;;;;;17.79;100.00;92000.75;5049411;28;20029;-79
2023/08/27 09:57:21;;;;;;;15.50;9.13;;;;;;;17.77;100.00;92010.91;5054708;28;20391;-79
2023/08/27 09:59:47;;;;;;;17.90;8.23;;;;;;;17.69;100.00;92000.13;5044454;28;20051;-79
2023/08/27 10:02:14;;;;;;;14.23;8.85;;;;;;;17.69;100.00;92004.66;5084159;28;20119;-79
2023/08/27 10:04:54;;;;;;;19.45;10.40;;;;;;;17.80;100.00;92010.97;5089100;28;20403;-79
2023/08/27 10:07:21;;;;;;;15.00;9.90;;;;;;;17.68;100.00;91998.59;5076949;28;20540;-79
2023/08/27 10:09:51;;;;;;;15.73;9.35;;;;;;;17.62;100.00;92009.78;5064426;28;20024;-79
2023/08/27 10:12:17;;;;;;;14.77;8.98;;;;;;;17.63;100.00;92011.31;5078065;28;20039;-80
2023/08/27 10:14:45;;;;;;;16.98;9.48;;;;;;;17.61;100.00;92011.66;5093954;28;20043;-81
2023/08/27 10:17:12;;;;;;;15.02;9.93;;;;;;;17.57;100.00;92016.09;5078663;28;20032;-79
2023/08/27 10:19:40;;;;;;;13.68;9.05;;;;;;;17.57;100.00;92020.63;5079778;28;20101;-80
2023/08/27 10:22:11;;;;;;;16.83;9.68;;;;;;;17.61;100.00;92016.94;5098489;28;20398;-80
2023/08/27 10:24:38;;;;;;;16.23;10.25;;;;;;;17.60;100.00;92018.03;5079104;28;20040;-80
2023/08/27 10:27:04;;;;;;;16.40;10.02;;;;;;;17.59;100.00;92024.47;5076560;28;20028;-80
2023/08/27 10:29:34;;;;;;;21.33;12.25;;;;;;;17.63;100.00;92038.56;5070649;28;20040;-79
2023/08/27 10:32:33;;;;;;;21.35;11.73;;;;;;;17.65;100.00;92035.53;5097881;28;20041;-80
2023/08/27 10:35:05;;;;;;;17.15;10.23;;;;;;;17.63;100.00;92032.47;5097664;28;20043;-79
2023/08/27 10:37:32;;;;;;;;;;;;;;;17.58;100.00;92022.16;5094433;28;20062;-80
2023/08/27 10:39:59;;;;;;;14.25;9.77;;;;;;;17.60;100.00;92018.03;5058235;28;19919;-80
2023/08/27 10:42:35;;;;;;;14.10;9.40;;;;;;;17.74;100.00;92011.56;5076150;28;20051;-80
2023/08/27 10:45:14;;;;;;;13.40;8.32;;;;;;;17.79;100.00;92009.44;5071862;28;20028;-82
2023/08/27 10:47:41;;;;;;;18.02;9.25;;;;;;;17.95;100.00;92014.75;5089781;28;20078;-80
2023/08/27 10:50:07;;;;;;;14.90;8.65;;;;;;;18.06;100.00;91991.19;5081459;28;20432;-81
2023/08/27 10:52:50;;;;;;;11.75;7.10;;;;;;;18.10;100.00;91987.50;5098052;28;20020;-79
2023/08/27 10:55:20;;;;;;;13.35;8.18;;;;;;;18.22;100.00;91985.84;5083476;28;20048;-80
2023/08/27 10:57:45;;;;;;;11.25;7.97;;;;;;;18.33;100.00;91986.06;5096430;28;20039;-80
2023/08/27 11:00:12;;;;;;;12.23;8.90;;;;;;;18.44;100.00;91987.84;5089428;28;20079;-80
2023/08/27 11:03:13;;;;;;;12.20;7.72;;;;;;;18.47;100.00;91994.34;5091505;28;20062;-81
2023/08/27 11:05:38;;;;;;;12.43;7.07;;;;;;;18.39;100.00;91988.09;5068047;28;20032;-80
2023/08/27 11:08:15;;;;;;;10.75;7.57;;;;;;;18.49;100.00;91987.56;5091777;28;20051;-80
2023/08/27 11:10:41;;;;;;;13.13;8.07;;;;;;;18.49;100.00;91990.22;5065017;28;20082;-79
2023/08/27 11:13:39;;;;;;;12.43;7.45;;;;;;;18.56;100.00;91994.91;5079516;28;20044;-79
2023/08/27 11:16:12;;;;;;;14.20;8.57;;;;;;;18.50;100.00;91989.09;5078552;28;20035;-80
2023/08/27 11:18:48;;;;;;;16.73;7.93;;;;;;;18.61;100.00;91983.25;5087573;28;20065;-80
2023/08/27 11:21:23;;;;;;;11.98;8.23;;;;;;;18.51;100.00;91985.34;5081985;28;20035;-79